Terminal Aerodrome Forecast
Issued by NWS Louisville, KY

Home | Current Version | Previous Version | Text Only | Print | Product List | Glossary On
Versions: 1 2 3 4 5 6 7 8 9 10 11 12 13
000
FTUS43 KLMK 271700
TAFLEX
TAF
KLEX 271720Z 2718/2818 21012G22KT P6SM SKC
     FM280000 18008KT P6SM FEW250
     FM280700 19009KT P6SM SCT250 WS017/20038KT
     FM281300 21013KT P6SM BKN040
     FM281700 21015KT P6SM SHRA BKN035=

USA.gov is the U.S. government's official web portal to all federal, state and local government web resources and services.